• Join FlightAware (Why Join?)
  • Login
  • US Flag 
12:04AM EDT


 

Airport Tracker/Info


-or-


 

Live Flight TrackerFlight Track Log ✈ GLA167 ✈ 30-Apr-2013 ✈ KPGA - KPHX

Flight Track Log - Related Links

Times and Time Zones

All times are in EDT time to prevent confusion due to time zone crossing. See the GLA167 flight status page for this flight to view local times or setup timezone preferences in your user account.

Time Position Orientation Groundspeed Altitude Reporting Facility
EDT Latitude Longitude Course Direction KTS MPH feet Rate Location/Type
09:07AM 36.8034 -111.5300 219° Southwest  Level FlightAware Approximate
09:07AM 37.0169 -111.5178 208° Southwest 215 247 7,100  Level Los Angeles Center
09:08AM 36.7445 -111.5733 206° Southwest  Level FlightAware Approximate
09:08AM 36.9711 -111.4636 137° Southeast 250 288 9,000  Level Los Angeles Center
09:09AM 36.6849 -111.6151 219° Southwest  Level FlightAware Approximate
09:09AM 36.9178 -111.4542 172° South 234 269 10,800  Level Los Angeles Center
09:10AM 36.6267 -111.6600 208° Southwest  Level FlightAware Approximate
09:10AM 36.8633 -111.4875 206° Southwest 224 258 11,800  Level Los Angeles Center
09:11AM 36.5661 -111.7004 208° Southwest  Level FlightAware Approximate
09:11AM 36.8114 -111.5300 213° Southwest 224 258 13,200  Level Los Angeles Center
09:12AM 36.5055 -111.7408 208° Southwest  Level FlightAware Approximate
09:12AM 36.7675 -111.5633 211° Southwest 225 259 14,300  Level Los Angeles Center
09:13AM 36.7031 -111.6092 210° Southwest 224 258 15,600 1,200 Climbing Los Angeles Center
09:14AM 36.6356 -111.6561 209° Southwest 231 266 17,000 1,200 Climbing Denver Center
09:15AM 36.5797 -111.6953 209° Southwest 231 266 18,200 960 Climbing Denver Center
09:16AM 36.5217 -111.7269 204° Southwest 230 265 19,000 840 Climbing Denver Center
09:17AM 36.4628 -111.7611 205° Southwest 232 267 20,000 960 Climbing Denver Center
09:18AM 36.4061 -111.8017 210° Southwest 233 268 21,000 780 Climbing Denver Center
09:19AM 36.3492 -111.8419 210° Southwest 234 269 21,700 480 Climbing Denver Center
09:20AM 36.3053 -111.8786 214° Southwest 238 274 22,000 120 Climbing Los Angeles Center
09:21AM 36.2461 -111.9239 212° Southwest 245 282 22,000  Level Los Angeles Center
09:22AM 36.1758 -111.9714 209° Southwest 273 314 22,000  Level Los Angeles Center
09:23AM 36.1122 -112.0211 212° Southwest 271 312 22,100  Climbing Los Angeles Center
09:24AM 36.0533 -112.0756 217° Southwest 267 307 22,000 -60 Descending Los Angeles Center
09:25AM 35.9794 -112.1358 213° Southwest 267 307 22,000  Level Los Angeles Center
09:26AM 35.9119 -112.1414 184° South 246 283 22,000 -60 Level Los Angeles Center
09:27AM 35.8508 -112.1553 190° South 231 266 21,900  Descending Los Angeles Center
09:28AM 35.7950 -112.1756 196° South 217 250 22,000  Climbing Los Angeles Center
09:29AM 35.7422 -112.1983 199° South 206 237 22,000 -60 Level Los Angeles Center
09:30AM 35.6889 -112.2153 194° South 201 231 21,900  Descending Los Angeles Center
09:31AM 35.6325 -112.2269 190° South 202 232 22,000 60 Climbing Los Angeles Center
09:32AM 35.5897 -112.2383 192° South 201 231 22,100  Climbing Albuquerque Center
09:33AM 35.5350 -112.2478 188° South 199 229 22,000 -60 Descending Albuquerque Center
09:34AM 35.4814 -112.2631 193° South 199 229 22,000  Level Albuquerque Center
09:35AM 35.4292 -112.2811 196° South 197 227 22,000  Level Albuquerque Center
09:36AM 35.3778 -112.2981 195° South 194 223 22,000  Level Albuquerque Center
09:37AM 35.3253 -112.3142 194° South 193 222 22,000  Level Albuquerque Center
09:38AM 35.2631 -112.3347 195° South 193 222 22,000  Level Albuquerque Center
09:39AM 35.2119 -112.3556 198° South 194 223 22,000  Level Albuquerque Center
09:40AM 35.1606 -112.3750 197° South 194 223 22,000  Level Albuquerque Center
09:41AM 35.1069 -112.3878 191° South 195 224 22,000  Level Albuquerque Center
09:42AM 35.0547 -112.4022 193° South 193 222 22,000  Level Albuquerque Center
09:43AM 35.0036 -112.4219 198° South 192 221 22,000  Level Albuquerque Center
09:44AM 34.9500 -112.4300 187° South 195 224 22,000  Level Albuquerque Center
09:45AM 34.8972 -112.4411 190° South 193 222 22,000  Level Albuquerque Center
09:46AM 34.8442 -112.4503 188° South 193 222 22,000  Level Albuquerque Center
09:47AM 34.7903 -112.4608 189° South 195 224 22,100  Climbing Albuquerque Center
09:48AM 34.7361 -112.4722 190° South 197 227 22,000 -300 Descending Albuquerque Center
09:49AM 34.6750 -112.4678 177° South 207 238 21,600 -600 Descending Albuquerque Center
09:50AM 34.6422 -112.4097 124° Southeast 212 244 20,800 -840 Descending Albuquerque Center
09:51AM 34.5994 -112.3603 136° Southeast 212 244 19,900 -960 Descending Albuquerque Center
09:52AM 34.5556 -112.3217 144° Southeast 212 244 18,900 -960 Descending Albuquerque Center
09:53AM 34.5056 -112.2856 149° Southeast 211 243 18,000 -1,080 Descending Albuquerque Center
09:54AM 34.4461 -112.2417 149° Southeast 209 241 16,800 -1,020 Descending Albuquerque Center
09:55AM 34.3950 -112.2106 153° Southeast 207 238 16,000 -840 Descending Albuquerque Center
09:56AM 34.3428 -112.1889 161° South 200 230 15,100 -1,200 Descending Albuquerque Center
09:57AM 34.2900 -112.1744 167° South 196 226 13,600 -1,560 Descending Albuquerque Center
09:58AM 34.2344 -112.1617 169° South 201 231 12,000 -1,320 Descending Albuquerque Center
09:59AM 34.1797 -112.1500 170° South 201 231 11,000 -540 Descending Albuquerque Center
10:00AM 34.1311 -112.1389 169° South 180 207 11,000  Level Albuquerque Center
10:01AM 34.0839 -112.1319 173° South 172 198 11,000 -420 Level Albuquerque Center
10:02AM 34.0292 -112.1275 176° South 166 191 10,200 -840 Descending Albuquerque Center
10:03AM 33.9836 -112.1283 181° South 164 189 9,400 -600 Descending Albuquerque Center
10:04AM 33.9350 -112.1286 180° South 174 200 9,000 -240 Descending Albuquerque Center
10:05AM 33.8864 -112.1275 179° South 177 204 9,000  Level Albuquerque Center
10:06AM 33.8389 -112.1378 190° South 172 198 9,000 -180 Level Albuquerque Center
10:07AM 33.7922 -112.1467 189° South 172 198 8,700 -540 Descending Albuquerque Center
10:08AM 33.7458 -112.1553 189° South 170 196 8,000 -480 Descending Albuquerque Center
10:09AM 33.6969 -112.1675 192° South 177 204 7,800 -600 Descending Albuquerque Center
10:10AM 33.6406 -112.1775 188° South 171 197 6,800 -900 Descending Albuquerque Center
10:11AM 33.5942 -112.1858 189° South 168 193 6,000 -840 Descending Albuquerque Center
10:13AM 33.5442 -112.1967 190° South 181 208 5,200 -780 Descending Albuquerque Center
10:14AM 33.4950 -112.2083 191° South 180 207 4,500 -900 Descending Albuquerque Center
10:15AM 33.4678 -112.1631 126° Southeast 185 213 3,400 -900 Descending Albuquerque Center
10:16AM 33.4511 -112.1106 111° Southeast 172 198 2,700 -780 Descending Albuquerque Center
10:17AM 33.4408 -112.0658 105° East 143 165 1,800 -840 Descending Albuquerque Center
10:18AM 33.4403 -112.0175 91° East 120 138 1,100 -720 Descending Albuquerque Center